Time;durP1;ratioP1;P1;durP2;ratioP2;P2;SDS_P1;SDS_P2;PMS_P1;PMS_P2;Temp;Humidity;BMP_temperature;BMP_pressure;BME280_temperature;BME280_humidity;BME280_pressure;Samples;Min_cycle;Max_cycle;Signal;HPM_P1;HPM_P2
2021/07/06 00:00:29;;;;;;;1999.90;999.90;;;19.80;99.90;;;;;;5097725;28;20524;-84
2021/07/06 00:02:59;;;;;;;1999.90;999.90;;;19.80;99.90;;;;;;5079087;28;20412;-85
2021/07/06 00:05:24;;;;;;;1999.90;999.90;;;19.80;99.90;;;;;;5096971;28;20436;-83
2021/07/06 00:07:51;;;;;;;1999.90;999.90;;;19.80;99.90;;;;;;5097145;28;20406;-84
2021/07/06 00:10:19;;;;;;;1999.90;999.90;;;19.80;99.90;;;;;;5078799;28;20413;-84
2021/07/06 00:12:45;;;;;;;1999.90;999.90;;;19.90;99.90;;;;;;5097690;28;20409;-84
2021/07/06 00:15:13;;;;;;;1999.90;999.90;;;19.80;99.90;;;;;;5096476;28;20401;-84
2021/07/06 00:17:40;;;;;;;1999.90;999.90;;;19.90;99.90;;;;;;5078478;28;20293;-84
2021/07/06 00:20:11;;;;;;;1999.90;999.90;;;19.90;99.90;;;;;;5097004;28;20448;-84
2021/07/06 00:22:38;;;;;;;1999.90;999.90;;;19.90;99.90;;;;;;5079723;28;20756;-84
2021/07/06 00:25:05;;;;;;;1999.90;999.90;;;19.80;99.90;;;;;;5097614;28;20455;-83
2021/07/06 00:27:31;;;;;;;1999.90;999.90;;;19.80;99.90;;;;;;5097200;28;20431;-84
2021/07/06 00:29:57;;;;;;;1999.90;999.90;;;19.80;99.90;;;;;;5096438;28;20413;-84
2021/07/06 00:32:22;;;;;;;1999.90;999.90;;;19.80;99.90;;;;;;5094667;28;20194;-84
2021/07/06 00:34:48;;;;;;;1999.90;999.90;;;19.70;99.90;;;;;;5094745;28;20173;-84
2021/07/06 00:37:14;;;;;;;1999.90;999.90;;;19.70;99.90;;;;;;5095932;28;20197;-84
2021/07/06 00:39:39;;;;;;;1999.90;999.90;;;19.80;99.90;;;;;;5096244;28;20196;-84
2021/07/06 00:42:09;;;;;;;1999.90;999.90;;;19.80;99.90;;;;;;5096076;28;20254;-84
2021/07/06 00:44:35;;;;;;;1999.90;999.90;;;19.80;99.90;;;;;;5096685;28;20160;-84
2021/07/06 00:47:04;;;;;;;1999.90;999.90;;;19.80;99.90;;;;;;5097265;28;20432;-84
2021/07/06 00:49:30;;;;;;;1999.90;999.90;;;19.80;99.90;;;;;;5097679;28;20414;-85
2021/07/06 00:51:55;;;;;;;1999.90;999.90;;;19.70;99.90;;;;;;5096788;28;20559;-84
2021/07/06 00:54:21;;;;;;;1999.90;999.90;;;19.70;99.90;;;;;;5095363;28;20513;-84
2021/07/06 00:56:47;;;;;;;1999.90;999.90;;;19.70;99.90;;;;;;5094404;28;20192;-84
2021/07/06 00:59:14;;;;;;;1999.90;999.90;;;19.70;99.90;;;;;;5077401;28;20172;-84
2021/07/06 01:01:40;;;;;;;1999.90;999.90;;;19.70;99.90;;;;;;5096081;28;20418;-84
2021/07/06 01:04:08;;;;;;;1999.90;999.90;;;19.70;99.90;;;;;;5095716;28;20415;-84
2021/07/06 01:06:34;;;;;;;1999.90;999.90;;;19.70;99.90;;;;;;5095574;28;20425;-84
2021/07/06 01:09:00;;;;;;;1999.90;999.90;;;19.70;99.90;;;;;;5094263;28;20991;-84
2021/07/06 01:11:27;;;;;;;1999.90;999.90;;;19.70;99.90;;;;;;5077313;28;20177;-84
2021/07/06 01:14:02;;;;;;;1999.90;999.90;;;19.70;99.90;;;;;;5095825;28;20168;-84
2021/07/06 01:16:28;;;;;;;1999.90;999.90;;;19.60;99.90;;;;;;5095243;28;20421;-84
2021/07/06 01:18:58;;;;;;;1999.90;999.90;;;19.60;99.90;;;;;;5096174;28;20982;-83
2021/07/06 01:21:26;;;;;;;1999.90;999.90;;;19.60;99.90;;;;;;5095418;28;20168;-84
2021/07/06 01:23:52;;;;;;;1999.90;999.90;;;19.60;99.90;;;;;;5095163;28;20502;-84
2021/07/06 01:26:18;;;;;;;1999.90;999.90;;;19.60;99.90;;;;;;5077653;28;20490;-84
2021/07/06 01:28:44;;;;;;;1999.90;999.90;;;19.60;99.90;;;;;;5094106;28;20398;-84
2021/07/06 01:31:09;;;;;;;1999.90;999.90;;;19.50;99.90;;;;;;5167353;22;20222;-80
2021/07/06 01:33:35;;;;;;;1999.90;999.90;;;19.50;99.90;;;;;;5095803;28;20164;-81
2021/07/06 01:36:04;;;;;;;1999.90;999.90;;;19.40;99.90;;;;;;5097264;28;20195;-81
2021/07/06 01:38:31;;;;;;;1999.90;999.90;;;19.40;99.90;;;;;;5078184;28;20410;-80
2021/07/06 01:40:57;;;;;;;1999.90;999.90;;;19.50;99.90;;;;;;5096517;28;20448;-80
2021/07/06 01:43:23;;;;;;;1999.90;999.90;;;19.40;99.90;;;;;;5096323;28;21010;-81
2021/07/06 01:45:49;;;;;;;1999.90;999.90;;;19.40;99.90;;;;;;5096462;28;20203;-80
2021/07/06 01:48:14;;;;;;;1999.90;999.90;;;19.40;99.90;;;;;;5096248;28;20404;-80
2021/07/06 01:50:42;;;;;;;1999.90;999.90;;;19.30;99.90;;;;;;5095801;28;20168;-81
2021/07/06 01:53:12;;;;;;;1999.90;999.90;;;19.40;99.90;;;;;;5077979;28;20169;-80
2021/07/06 01:55:41;;;;;;;1999.90;999.90;;;19.30;99.90;;;;;;5096627;28;20425;-80
2021/07/06 01:58:09;;;;;;;1999.90;999.90;;;19.40;99.90;;;;;;5096110;28;20769;-80
2021/07/06 02:00:38;;;;;;;1999.90;999.90;;;19.30;99.90;;;;;;5078775;28;20456;-81
2021/07/06 02:03:05;;;;;;;1999.90;999.90;;;19.30;99.90;;;;;;5077700;28;20405;-80
2021/07/06 02:05:40;;;;;;;1999.90;999.90;;;19.30;99.90;;;;;;5078378;28;20796;-80
2021/07/06 02:08:09;;;;;;;1999.90;999.90;;;19.30;99.90;;;;;;5077900;28;20453;-81
2021/07/06 02:10:35;;;;;;;1999.90;999.90;;;19.30;99.90;;;;;;5078012;28;20458;-80
2021/07/06 02:13:06;;;;;;;1999.90;999.90;;;19.30;99.90;;;;;;5096368;28;20788;-80
2021/07/06 02:15:32;;;;;;;1999.90;999.90;;;19.30;99.90;;;;;;5077137;28;20516;-80
2021/07/06 02:17:58;;;;;;;1999.90;999.90;;;19.30;99.90;;;;;;5096002;28;20884;-80
2021/07/06 02:20:24;;;;;;;1999.90;999.90;;;19.30;99.90;;;;;;5094198;28;20191;-80
2021/07/06 02:22:50;;;;;;;1999.90;999.90;;;19.30;99.90;;;;;;5095808;28;20630;-81
2021/07/06 02:25:19;;;;;;;1999.90;999.90;;;19.20;99.90;;;;;;5095589;28;20397;-80
2021/07/06 02:27:47;;;;;;;1999.90;999.90;;;19.20;99.90;;;;;;5095878;28;20397;-81
2021/07/06 02:30:15;;;;;;;1999.90;999.90;;;19.30;99.90;;;;;;5096177;28;20403;-81
2021/07/06 02:32:41;;;;;;;1999.90;999.90;;;19.30;99.90;;;;;;5077631;28;20413;-80
2021/07/06 02:35:09;;;;;;;1999.90;999.90;;;19.20;99.90;;;;;;5095705;28;20410;-81
2021/07/06 02:37:35;;;;;;;1999.90;999.90;;;19.20;99.90;;;;;;5096044;28;20202;-81
2021/07/06 02:40:04;;;;;;;1999.90;999.90;;;19.30;99.90;;;;;;5077607;28;20849;-80
2021/07/06 02:42:29;;;;;;;1999.90;999.90;;;19.30;99.90;;;;;;5095526;28;20397;-80
2021/07/06 02:44:55;;;;;;;1999.90;999.90;;;19.20;99.90;;;;;;5094684;28;20465;-81
2021/07/06 02:47:21;;;;;;;1999.90;999.90;;;19.30;99.90;;;;;;5096143;28;20214;-80
2021/07/06 02:49:46;;;;;;;1999.90;999.90;;;19.30;99.90;;;;;;5094036;28;20170;-80
2021/07/06 02:52:13;;;;;;;1999.90;999.90;;;19.30;99.90;;;;;;5096226;28;20174;-81
2021/07/06 02:54:39;;;;;;;1999.90;999.90;;;19.30;99.90;;;;;;5095721;28;20300;-81
2021/07/06 02:57:09;;;;;;;1999.90;999.90;;;19.30;99.90;;;;;;5077154;28;20961;-81
2021/07/06 02:59:38;;;;;;;1999.90;999.90;;;19.30;99.90;;;;;;5095693;28;20429;-81
2021/07/06 03:02:04;;;;;;;1999.90;999.90;;;19.30;99.90;;;;;;5095468;28;20768;-80
2021/07/06 03:04:30;;;;;;;1999.90;999.90;;;19.20;99.90;;;;;;5080743;28;20928;-81
2021/07/06 03:06:55;;;;;;;1999.90;999.90;;;19.20;99.90;;;;;;5081213;28;20432;-80
2021/07/06 03:09:21;;;;;;;1999.90;999.90;;;19.20;99.90;;;;;;5099837;28;20409;-80
2021/07/06 03:11:47;;;;;;;1999.90;999.90;;;19.20;99.90;;;;;;5098822;28;20533;-80
2021/07/06 03:14:12;;;;;;;1999.90;999.90;;;19.20;99.90;;;;;;5098849;28;20191;-80
2021/07/06 03:16:38;;;;;;;1999.90;999.90;;;19.20;99.90;;;;;;5099562;28;20202;-80
2021/07/06 03:19:04;;;;;;;1999.90;999.90;;;19.20;99.90;;;;;;5099587;28;20171;-80
2021/07/06 03:21:30;;;;;;;1999.90;999.90;;;19.30;99.90;;;;;;5099410;28;20220;-80
2021/07/06 03:23:56;;;;;;;1999.90;999.90;;;19.30;99.90;;;;;;5081631;28;20261;-80
2021/07/06 03:26:21;;;;;;;1999.90;999.90;;;19.30;99.90;;;;;;5099127;28;20505;-80
2021/07/06 03:28:47;;;;;;;1999.90;999.90;;;19.30;99.90;;;;;;5099120;28;20151;-81
2021/07/06 03:31:13;;;;;;;1999.90;999.90;;;19.20;99.90;;;;;;5099002;28;20254;-81
2021/07/06 03:33:38;;;;;;;1999.90;999.90;;;19.20;99.90;;;;;;5098121;28;20537;-80
2021/07/06 03:36:05;;;;;;;1999.90;999.90;;;19.20;99.90;;;;;;5099481;28;20176;-80
2021/07/06 03:38:31;;;;;;;1999.90;999.90;;;19.30;99.90;;;;;;5097280;28;20215;-80
2021/07/06 03:40:57;;;;;;;1999.90;999.90;;;19.30;99.90;;;;;;5098966;28;20441;-81
2021/07/06 03:43:22;;;;;;;1999.90;999.90;;;19.30;99.90;;;;;;5099454;28;20393;-80
2021/07/06 03:45:48;;;;;;;1999.90;999.90;;;19.20;99.90;;;;;;5080804;28;20183;-80
2021/07/06 03:48:14;;;;;;;1999.90;999.90;;;19.20;99.90;;;;;;5098512;28;20164;-80
2021/07/06 03:50:39;;;;;;;1999.90;999.90;;;19.20;99.90;;;;;;5098743;28;20162;-80
2021/07/06 03:53:07;;;;;;;1999.90;999.90;;;19.20;99.90;;;;;;5099423;28;20502;-80
2021/07/06 03:55:32;;;;;;;1999.90;999.90;;;19.30;99.90;;;;;;5097516;28;20191;-80
2021/07/06 03:57:58;;;;;;;1999.90;999.90;;;19.30;99.90;;;;;;5099148;28;20412;-80
2021/07/06 04:00:27;;;;;;;1999.90;999.90;;;19.30;99.90;;;;;;5099257;28;20195;-80
2021/07/06 04:02:53;;;;;;;1999.90;999.90;;;19.30;99.90;;;;;;5098416;28;20167;-80
2021/07/06 04:05:18;;;;;;;1999.90;999.90;;;19.30;99.90;;;;;;5098319;28;20417;-80
2021/07/06 04:07:44;;;;;;;1999.90;999.90;;;19.30;99.90;;;;;;5098009;28;20802;-80
2021/07/06 04:10:13;;;;;;;1999.90;999.90;;;19.30;99.90;;;;;;5079460;28;20202;-80
2021/07/06 04:12:40;;;;;;;1999.90;999.90;;;19.40;99.90;;;;;;5097761;28;20416;-80
2021/07/06 04:15:08;;;;;;;1999.90;999.90;;;19.30;99.90;;;;;;5096674;28;20397;-80
2021/07/06 04:17:33;;;;;;;1999.90;999.90;;;19.30;99.90;;;;;;5097620;28;20404;-80
2021/07/06 04:20:05;;;;;;;1999.90;999.90;;;19.40;99.90;;;;;;5097602;28;20445;-80
2021/07/06 04:22:31;;;;;;;1999.90;999.90;;;19.30;99.90;;;;;;5096790;28;20190;-80
2021/07/06 04:24:56;;;;;;;1999.90;999.90;;;19.30;99.90;;;;;;5097372;28;20406;-80
2021/07/06 04:27:22;;;;;;;1999.90;999.90;;;19.30;99.90;;;;;;5096761;28;20660;-80
2021/07/06 04:29:48;;;;;;;1999.90;999.90;;;19.30;99.90;;;;;;5078999;28;20228;-80
2021/07/06 04:32:16;;;;;;;1999.90;999.90;;;19.20;99.90;;;;;;5096623;28;20821;-80
2021/07/06 04:34:46;;;;;;;1999.90;999.90;;;19.20;99.90;;;;;;5097102;28;20171;-80
2021/07/06 04:37:13;;;;;;;1999.90;999.90;;;19.30;99.90;;;;;;5096444;28;20449;-80
2021/07/06 04:39:39;;;;;;;1999.90;999.90;;;19.30;99.90;;;;;;5096225;28;20436;-79
2021/07/06 04:42:05;;;;;;;1999.90;999.90;;;19.20;99.90;;;;;;5078090;28;20401;-79
2021/07/06 04:44:31;;;;;;;1999.90;999.90;;;19.30;99.90;;;;;;5096467;28;20404;-80
2021/07/06 04:46:56;;;;;;;1999.90;999.90;;;19.20;99.90;;;;;;5096269;28;20417;-80
2021/07/06 04:49:22;;;;;;;1999.90;999.90;;;19.20;99.90;;;;;;5097057;28;20193;-80
2021/07/06 04:51:48;;;;;;;1999.90;999.90;;;19.20;99.90;;;;;;5096551;28;20657;-80
2021/07/06 04:54:13;;;;;;;1999.90;999.90;;;19.20;99.90;;;;;;5096256;28;20634;-80
2021/07/06 04:56:39;;;;;;;1999.90;999.90;;;19.20;99.90;;;;;;5095639;28;20515;-79
2021/07/06 04:59:05;;;;;;;1999.90;999.90;;;19.20;99.90;;;;;;5095628;28;20244;-79
2021/07/06 05:01:30;;;;;;;1999.90;999.90;;;19.20;99.90;;;;;;5095613;28;20175;-79
2021/07/06 05:03:57;;;;;;;1999.90;999.90;;;19.30;99.90;;;;;;5095636;28;20171;-80
2021/07/06 05:06:23;;;;;;;1999.90;999.90;;;19.20;99.90;;;;;;5095567;28;20558;-79
2021/07/06 05:08:49;;;;;;;1999.90;999.90;;;19.30;99.90;;;;;;5094195;28;20405;-79
2021/07/06 05:11:15;;;;;;;1999.90;999.90;;;19.30;99.90;;;;;;5095491;28;20193;-79
2021/07/06 05:13:41;;;;;;;1999.90;999.90;;;19.30;99.90;;;;;;5095380;28;20406;-79
2021/07/06 05:16:06;;;;;;;1999.90;999.90;;;19.30;99.90;;;;;;5095084;28;20421;-79
2021/07/06 05:18:32;;;;;;;1999.90;999.90;;;19.30;99.90;;;;;;5095433;28;20239;-79
2021/07/06 05:20:58;;;;;;;1999.90;999.90;;;19.30;99.90;;;;;;5095373;28;20255;-79
2021/07/06 05:23:23;;;;;;;1999.90;999.90;;;19.20;99.90;;;;;;5095155;28;20160;-80
2021/07/06 05:25:49;;;;;;;1999.90;999.90;;;19.30;99.90;;;;;;5094137;28;20207;-79
2021/07/06 05:28:15;;;;;;;1999.90;999.90;;;19.30;99.90;;;;;;5094966;28;20159;-80
2021/07/06 05:30:41;;;;;;;1999.90;999.90;;;19.30;99.90;;;;;;5094700;28;20212;-80
2021/07/06 05:33:06;;;;;;;1999.90;999.90;;;19.30;99.90;;;;;;5093708;28;20160;-81
2021/07/06 05:35:32;;;;;;;1999.90;999.90;;;19.30;99.90;;;;;;5094640;28;20633;-80
2021/07/06 05:38:00;;;;;;;1999.90;999.90;;;19.20;99.90;;;;;;5094717;28;20187;-81
2021/07/06 05:40:26;;;;;;;1999.90;999.90;;;19.30;99.90;;;;;;5094714;28;20187;-81
2021/07/06 05:42:51;;;;;;;1999.90;999.90;;;19.20;99.90;;;;;;5094612;28;20416;-81
2021/07/06 05:45:17;;;;;;;1999.90;999.90;;;19.20;99.90;;;;;;5094923;28;20234;-82
2021/07/06 05:47:43;;;;;;;1999.90;999.90;;;19.20;99.90;;;;;;5094546;28;20159;-82
2021/07/06 05:50:12;;;;;;;1999.90;999.90;;;19.20;99.90;;;;;;5094446;28;20159;-82
2021/07/06 05:52:38;;;;;;;1999.90;999.90;;;19.20;99.90;;;;;;5094680;28;20564;-82
2021/07/06 05:55:06;;;;;;;1999.90;999.90;;;19.20;99.90;;;;;;5094231;28;20462;-85
2021/07/06 05:57:31;;;;;;;1999.90;999.90;;;19.20;99.90;;;;;;5094180;28;20203;-85
2021/07/06 05:59:59;;;;;;;1999.90;999.90;;;19.10;99.90;;;;;;5099871;28;20432;-84
2021/07/06 06:02:28;;;;;;;1999.90;999.90;;;19.10;99.90;;;;;;5083675;28;20402;-84
2021/07/06 06:04:54;;;;;;;1999.90;999.90;;;19.20;99.90;;;;;;5094623;28;20810;-85
2021/07/06 06:07:24;;;;;;;1999.90;999.90;;;19.20;99.90;;;;;;5094163;28;20429;-84
2021/07/06 06:09:50;;;;;;;1999.90;999.90;;;19.20;99.90;;;;;;5094282;28;20164;-85
2021/07/06 06:12:16;;;;;;;1999.90;999.90;;;19.20;99.90;;;;;;5094231;28;20397;-85
2021/07/06 06:14:42;;;;;;;1999.90;999.90;;;19.20;99.90;;;;;;5093918;28;20420;-85
2021/07/06 06:17:08;;;;;;;1999.90;999.90;;;19.10;99.90;;;;;;5076725;28;20187;-85
2021/07/06 06:19:36;;;;;;;1999.90;999.90;;;19.20;99.90;;;;;;5095056;28;20519;-84
2021/07/06 06:22:02;;;;;;;1999.90;999.90;;;19.20;99.90;;;;;;5096521;28;20170;-84
2021/07/06 06:24:34;;;;;;;1999.90;999.90;;;19.20;99.90;;;;;;5077202;28;20397;-84
2021/07/06 06:26:59;;;;;;;1999.90;999.90;;;19.20;99.90;;;;;;5095357;28;20451;-84
2021/07/06 06:29:29;;;;;;;1999.90;999.90;;;19.20;99.90;;;;;;5096419;28;20406;-84
2021/07/06 06:31:58;;;;;;;1999.90;999.90;;;19.20;99.90;;;;;;5097830;28;20191;-84
2021/07/06 06:34:23;;;;;;;1999.90;999.90;;;19.20;99.90;;;;;;5101301;28;20432;-84
2021/07/06 06:36:49;;;;;;;1999.90;999.90;;;19.20;99.90;;;;;;5103606;28;20425;-84
2021/07/06 06:39:17;;;;;;;1999.90;999.90;;;19.20;99.90;;;;;;5103805;28;20159;-84
2021/07/06 06:41:46;;;;;;;1999.90;999.90;;;19.20;99.90;;;;;;5104114;28;20166;-84
2021/07/06 06:44:12;;;;;;;1999.90;999.90;;;19.10;99.90;;;;;;5103856;28;20492;-84
2021/07/06 06:46:37;;;;;;;1999.90;999.90;;;19.10;99.90;;;;;;5103910;28;20470;-84
2021/07/06 06:49:04;;;;;;;1999.90;999.90;;;19.10;99.90;;;;;;5102700;28;20170;-84
2021/07/06 06:51:31;;;;;;;1999.90;999.90;;;19.10;99.90;;;;;;5103702;28;20163;-84
2021/07/06 06:53:57;;;;;;;1999.90;999.90;;;19.20;99.90;;;;;;5105435;28;20398;-84
2021/07/06 06:56:23;;;;;;;1999.90;999.90;;;19.20;99.90;;;;;;5104757;28;20417;-84
2021/07/06 06:58:49;;;;;;;1999.90;999.90;;;19.10;99.90;;;;;;5102443;28;20410;-84
2021/07/06 07:01:15;;;;;;;1999.90;999.90;;;19.10;99.90;;;;;;5103217;28;20677;-84
2021/07/06 07:03:40;;;;;;;1999.90;999.90;;;19.10;99.90;;;;;;5100404;28;20159;-84
2021/07/06 07:06:07;;;;;;;1999.90;999.90;;;19.00;99.90;;;;;;5096230;28;20844;-84
2021/07/06 07:08:32;;;;;;;1999.90;999.90;;;19.00;99.90;;;;;;5094411;28;20167;-83
2021/07/06 07:10:58;;;;;;;1999.90;999.90;;;18.90;99.90;;;;;;5095849;28;20484;-84
2021/07/06 07:13:26;;;;;;;1999.90;999.90;;;18.90;99.90;;;;;;5094231;28;20182;-84
2021/07/06 07:15:52;;;;;;;1999.90;999.90;;;18.90;99.90;;;;;;5093579;28;20421;-85
2021/07/06 07:18:18;;;;;;;1999.90;999.90;;;19.00;99.90;;;;;;5094182;28;20404;-85
2021/07/06 07:20:44;;;;;;;1999.90;999.90;;;19.00;99.90;;;;;;5075580;28;20270;-85
2021/07/06 07:23:10;;;;;;;1999.90;999.90;;;19.00;99.90;;;;;;5093484;28;20641;-85
2021/07/06 07:25:36;;;;;;;1999.90;999.90;;;19.00;99.90;;;;;;5093101;28;20413;-85
2021/07/06 07:28:01;;;;;;;1999.90;999.90;;;19.10;99.90;;;;;;5093133;28;20192;-85
2021/07/06 07:30:27;;;;;;;1999.90;999.90;;;19.10;99.90;;;;;;5091852;28;20413;-84
2021/07/06 07:32:53;;;;;;;1999.90;999.90;;;19.10;99.90;;;;;;5093600;28;20171;-85
2021/07/06 07:35:20;;;;;;;1999.90;999.90;;;19.10;99.90;;;;;;5093534;28;20186;-85
2021/07/06 07:37:46;;;;;;;1999.90;999.90;;;19.10;99.90;;;;;;5092549;28;20198;-85
2021/07/06 07:40:14;;;;;;;1999.90;999.90;;;19.00;99.90;;;;;;5077110;28;20448;-85
2021/07/06 07:42:40;;;;;;;1999.90;999.90;;;19.10;99.90;;;;;;5093888;28;20425;-84
2021/07/06 07:45:06;;;;;;;1999.90;999.90;;;19.10;99.90;;;;;;5092347;28;20893;-84
2021/07/06 07:47:32;;;;;;;1999.90;999.90;;;19.00;99.90;;;;;;5093459;28;20155;-84
2021/07/06 07:49:58;;;;;;;1999.90;999.90;;;19.00;99.90;;;;;;5095554;28;20516;-84
2021/07/06 07:52:24;;;;;;;1999.90;999.90;;;19.00;99.90;;;;;;5097964;28;20802;-84
2021/07/06 07:54:50;;;;;;;1999.90;999.90;;;19.00;99.90;;;;;;5095932;28;20406;-84
2021/07/06 07:57:24;;;;;;;1999.90;999.90;;;19.00;99.90;;;;;;5096584;28;20190;-84
2021/07/06 07:59:54;;;;;;;1999.90;999.90;;;19.00;99.90;;;;;;5097947;28;20565;-85
2021/07/06 08:02:21;;;;;;;1999.90;999.90;;;19.10;99.90;;;;;;5079791;28;20772;-84
2021/07/06 08:04:46;;;;;;;1999.90;999.90;;;19.10;99.90;;;;;;5078586;28;20547;-84
2021/07/06 08:07:12;;;;;;;1999.90;999.90;;;19.10;99.90;;;;;;5078962;28;20456;-84
2021/07/06 08:09:39;;;;;;;1999.90;999.90;;;19.10;99.90;;;;;;5095883;28;20198;-84
2021/07/06 08:12:05;;;;;;;1999.90;999.90;;;19.10;99.90;;;;;;5096004;28;20404;-84
2021/07/06 08:14:31;;;;;;;1999.90;999.90;;;19.20;99.90;;;;;;5078148;28;20931;-85
2021/07/06 08:17:05;;;;;;;1999.90;999.90;;;19.30;99.90;;;;;;5096496;28;20464;-84
2021/07/06 08:19:31;;;;;;;1999.90;999.90;;;19.30;99.90;;;;;;5097560;28;20155;-84
2021/07/06 08:21:57;;;;;;;1999.90;999.90;;;19.30;99.90;;;;;;5096628;28;20397;-84
2021/07/06 08:24:23;;;;;;;1999.90;999.90;;;19.50;99.90;;;;;;5095283;28;20163;-84
2021/07/06 08:26:48;;;;;;;1999.90;999.90;;;19.60;99.90;;;;;;5097958;28;20186;-84
2021/07/06 08:29:16;;;;;;;1999.90;999.90;;;19.70;99.90;;;;;;5096815;28;20159;-84
2021/07/06 08:31:42;;;;;;;1999.90;999.90;;;19.70;99.90;;;;;;5094881;28;20553;-84
2021/07/06 08:34:08;;;;;;;1999.90;999.90;;;19.80;99.90;;;;;;5098013;28;20401;-84
2021/07/06 08:36:33;;;;;;;1999.90;999.90;;;19.80;99.90;;;;;;5081165;28;20601;-84
2021/07/06 08:38:59;;;;;;;1999.90;999.90;;;19.70;99.90;;;;;;5097292;28;20410;-84
2021/07/06 08:41:25;;;;;;;1999.90;999.90;;;19.80;99.90;;;;;;5099771;28;20191;-84
2021/07/06 08:43:50;;;;;;;1999.90;999.90;;;19.90;99.90;;;;;;5098889;28;20768;-84
2021/07/06 08:46:18;;;;;;;1999.90;999.90;;;20.00;99.90;;;;;;5099352;28;20187;-84
2021/07/06 08:48:46;;;;;;;1999.90;999.90;;;20.10;99.90;;;;;;5104359;28;20151;-84
2021/07/06 08:51:16;;;;;;;1999.90;999.90;;;20.20;99.90;;;;;;5101582;28;20405;-84
2021/07/06 08:53:42;;;;;;;1999.90;999.90;;;20.20;99.90;;;;;;5081623;28;20405;-84
2021/07/06 08:56:07;;;;;;;1999.90;999.90;;;20.10;99.90;;;;;;5079518;28;20435;-84
2021/07/06 08:58:36;;;;;;;1999.90;999.90;;;20.00;99.90;;;;;;5099667;28;20212;-84
2021/07/06 09:01:02;;;;;;;1999.90;999.90;;;20.10;99.90;;;;;;5098158;28;20201;-84
2021/07/06 09:03:52;;;;;;;1999.90;999.90;;;20.10;99.90;;;;;;5100242;28;20408;-84
2021/07/06 09:06:18;;;;;;;1999.90;999.90;;;20.20;99.90;;;;;;5081981;28;20470;-84
2021/07/06 09:08:50;;;;;;;1999.90;999.90;;;20.30;99.90;;;;;;5102628;28;20401;-83
2021/07/06 09:11:16;;;;;;;1999.90;999.90;;;20.30;99.90;;;;;;5104041;28;20241;-83
2021/07/06 09:13:42;;;;;;;1999.90;999.90;;;20.30;99.90;;;;;;5104613;28;20403;-83
2021/07/06 09:16:08;;;;;;;1999.90;999.90;;;20.20;99.90;;;;;;5103664;28;20430;-83
2021/07/06 09:18:34;;;;;;;1999.90;999.90;;;20.20;99.90;;;;;;5103330;28;20223;-83
2021/07/06 09:21:06;;;;;;;1999.90;999.90;;;20.30;99.90;;;;;;5103669;28;20452;-83
2021/07/06 09:23:38;;;;;;;1999.90;999.90;;;20.40;99.90;;;;;;5086016;28;20406;-83
2021/07/06 09:26:05;;;;;;;1999.90;999.90;;;20.40;99.90;;;;;;5085052;28;20881;-83
2021/07/06 09:28:36;;;;;;;1999.90;999.90;;;20.40;99.90;;;;;;5102173;28;20468;-83
2021/07/06 09:31:28;;;;;;;1999.90;999.90;;;20.50;99.90;;;;;;5103558;28;20797;-83
2021/07/06 09:34:02;;;;;;;1999.90;999.90;;;20.70;99.90;;;;;;5100478;28;20418;-83
2021/07/06 09:36:39;;;;;;;1999.90;999.90;;;20.80;99.90;;;;;;5086063;28;20472;-83
2021/07/06 09:39:06;;;;;;;1999.90;999.90;;;20.90;99.90;;;;;;5086180;28;20492;-83
2021/07/06 09:41:33;;;;;;;1999.90;999.90;;;20.90;99.90;;;;;;5104397;28;20463;-83
2021/07/06 09:44:37;;;;;;;1999.90;999.90;;;20.90;99.90;;;;;;5086807;28;20973;-83
2021/07/06 09:47:04;;;;;;;1999.90;999.90;;;20.90;99.90;;;;;;5106443;28;20424;-82
2021/07/06 09:49:33;;;;;;;1999.90;999.90;;;20.90;99.90;;;;;;5088327;28;20477;-82
2021/07/06 09:52:15;;;;;;;1999.90;999.90;;;20.90;99.90;;;;;;5087606;28;20404;-82
2021/07/06 09:54:46;;;;;;;1999.90;999.90;;;20.90;99.90;;;;;;5105310;28;20414;-82
2021/07/06 09:57:28;;;;;;;1999.90;999.90;;;21.00;99.90;;;;;;5087106;28;20456;-82
2021/07/06 09:59:58;;;;;;;1999.90;999.90;;;21.00;99.90;;;;;;5085840;28;20455;-82
2021/07/06 10:02:26;;;;;;;1999.90;999.90;;;21.10;99.90;;;;;;5103313;28;20420;-82
2021/07/06 10:04:53;;;;;;;1999.90;999.90;;;21.20;99.90;;;;;;5086395;28;20475;-82
2021/07/06 10:07:21;;;;;;;1999.90;999.90;;;21.30;99.90;;;;;;5086165;28;20425;-82
2021/07/06 10:09:48;;;;;;;1999.90;999.90;;;21.30;99.90;;;;;;5104188;28;20480;-82
2021/07/06 10:12:15;;;;;;;1999.90;999.90;;;21.50;99.90;;;;;;5102299;28;20412;-82
2021/07/06 10:14:44;;;;;;;1999.90;999.90;;;21.60;99.90;;;;;;5100390;28;20452;-82
2021/07/06 10:17:11;;;;;;;1999.90;999.90;;;21.50;99.90;;;;;;5101676;28;20841;-82
2021/07/06 10:19:45;;;;;;;1999.90;999.90;;;21.50;99.90;;;;;;5100603;28;20443;-81
2021/07/06 10:22:15;;;;;;;1999.90;999.90;;;21.70;99.90;;;;;;5100135;28;20390;-81
2021/07/06 10:24:46;;;;;;;1999.90;999.90;;;21.60;99.90;;;;;;5081483;28;20443;-81
2021/07/06 10:27:20;;;;;;;1999.90;999.90;;;21.50;99.90;;;;;;5079196;28;20440;-81
2021/07/06 10:29:46;;;;;;;1999.90;999.90;;;21.50;99.90;;;;;;5097709;28;20441;-81
2021/07/06 10:32:35;;;;;;;1999.90;999.90;;;21.50;99.90;;;;;;5097597;28;20421;-81
2021/07/06 10:35:01;;;;;;;1999.90;999.90;;;21.70;99.90;;;;;;5080395;28;20459;-80
2021/07/06 10:37:29;;;;;;;1999.90;999.90;;;22.00;99.90;;;;;;5098168;28;20404;-81
2021/07/06 10:40:11;;;;;;;1999.90;999.90;;;22.30;99.90;;;;;;5098247;28;20304;-80
2021/07/06 10:42:39;;;;;;;1999.90;999.90;;;22.70;99.90;;;;;;5097522;28;20848;-80
2021/07/06 10:45:32;;;;;;;1999.90;999.90;;;23.20;99.90;;;;;;5096927;28;20951;-80
2021/07/06 10:47:58;;;;;;;1999.90;999.90;;;23.60;99.90;;;;;;5079456;28;20927;-81
2021/07/06 10:50:29;;;;;;;1999.90;999.90;;;23.80;99.90;;;;;;5097835;28;20405;-80
2021/07/06 10:53:13;;;;;;;1999.90;999.90;;;23.80;99.90;;;;;;5097711;28;20167;-80
2021/07/06 10:55:40;;;;;;;1999.90;999.90;;;24.10;99.90;;;;;;5097461;28;20980;-81
2021/07/06 10:58:06;;;;;;;1999.90;999.90;;;24.20;99.90;;;;;;5079846;28;20776;-81
2021/07/06 11:00:42;;;;;;;1999.90;999.90;;;24.30;99.90;;;;;;5096274;28;20449;-81
2021/07/06 11:03:16;;;;;;;1999.90;999.90;;;24.30;99.90;;;;;;5098198;28;20166;-81
2021/07/06 11:05:42;;;;;;;1999.90;999.90;;;24.40;99.90;;;;;;5097999;28;20855;-81
2021/07/06 11:08:28;;;;;;;1999.90;999.90;;;24.60;99.90;;;;;;5097756;28;20397;-81
2021/07/06 11:10:54;;;;;;;1999.90;999.90;;;24.80;99.90;;;;;;5098068;28;20410;-81
2021/07/06 11:13:21;;;;;;;1999.90;999.90;;;25.20;99.90;;;;;;5098036;28;20406;-81
2021/07/06 11:15:47;;;;;;;1999.90;999.90;;;25.30;99.90;;;;;;5098021;28;20531;-81
2021/07/06 11:18:15;;;;;;;1999.90;999.90;;;25.10;92.50;;;;;;5079808;28;20441;-81
2021/07/06 11:20:43;;;;;;;1999.90;999.90;;;25.30;96.70;;;;;;5098137;28;20983;-81
2021/07/06 11:23:22;;;;;;;1999.90;999.90;;;25.40;98.10;;;;;;5098357;28;20953;-81
2021/07/06 11:25:48;;;;;;;1999.90;999.90;;;25.50;95.90;;;;;;5102870;28;20417;-81
2021/07/06 11:28:24;;;;;;;1999.90;999.90;;;25.60;94.40;;;;;;5100699;28;20414;-81
2021/07/06 11:30:59;;;;;;;1999.90;999.90;;;26.00;94.90;;;;;;5083903;28;20458;-81
2021/07/06 11:33:40;;;;;;;1999.90;999.90;;;26.20;84.40;;;;;;5083982;28;20406;-81
2021/07/06 11:36:16;;;;;;;1999.90;999.90;;;25.90;71.10;;;;;;5101555;28;20439;-81
2021/07/06 11:38:44;;;;;;;1999.90;999.90;;;25.90;60.40;;;;;;5102341;28;20398;-81
2021/07/06 11:41:16;;;;;;;1999.90;999.90;;;25.60;66.80;;;;;;5101734;28;20508;-81
2021/07/06 11:43:42;;;;;;;1999.90;999.90;;;25.90;68.10;;;;;;5083381;28;20760;-81
2021/07/06 11:46:11;;;;;;;1999.90;999.90;;;26.10;37.70;;;;;;5102379;28;20425;-81
2021/07/06 11:48:39;;;;;;;1999.90;999.90;;;26.20;18.80;;;;;;5102633;28;20401;-81
2021/07/06 11:51:09;;;;;;;1999.90;999.90;;;26.20;62.90;;;;;;5084594;28;20423;-81
2021/07/06 11:53:40;;;;;;;1999.90;999.90;;;26.30;53.30;;;;;;5101847;28;20407;-81
2021/07/06 11:56:07;;;;;;;1999.90;999.90;;;26.50;49.10;;;;;;5083722;28;20428;-81
2021/07/06 11:58:35;;;;;;;1999.90;999.90;;;26.70;28.20;;;;;;5100720;28;20520;-81
2021/07/06 12:01:06;;;;;;;1999.90;999.90;;;26.90;26.90;;;;;;5101852;28;20443;-81